sensor_id;sensor_type;location;lat;lon;timestamp;P1;durP1;ratioP1;P2;durP2;ratioP2
73023;SDS011;61199;47.526;8.538;2022-12-07T00:01:39;57.90;;;24.17;;
73023;SDS011;61199;47.526;8.538;2022-12-07T00:04:08;52.60;;;24.70;;
73023;SDS011;61199;47.526;8.538;2022-12-07T00:06:38;45.70;;;22.67;;
73023;SDS011;61199;47.526;8.538;2022-12-07T00:09:07;52.03;;;25.03;;
73023;SDS011;61199;47.526;8.538;2022-12-07T00:11:36;52.30;;;23.80;;
73023;SDS011;61199;47.526;8.538;2022-12-07T00:14:04;56.20;;;24.43;;
73023;SDS011;61199;47.526;8.538;2022-12-07T00:16:33;55.37;;;24.00;;
73023;SDS011;61199;47.526;8.538;2022-12-07T00:19:00;57.07;;;24.43;;
73023;SDS011;61199;47.526;8.538;2022-12-07T00:21:28;61.23;;;26.27;;
73023;SDS011;61199;47.526;8.538;2022-12-07T00:23:56;60.70;;;27.40;;
73023;SDS011;61199;47.526;8.538;2022-12-07T00:26:30;53.53;;;24.33;;
73023;SDS011;61199;47.526;8.538;2022-12-07T00:29:05;58.33;;;25.90;;
73023;SDS011;61199;47.526;8.538;2022-12-07T00:31:34;57.43;;;24.80;;
73023;SDS011;61199;47.526;8.538;2022-12-07T00:34:05;58.47;;;25.30;;
73023;SDS011;61199;47.526;8.538;2022-12-07T00:36:32;53.47;;;23.60;;
73023;SDS011;61199;47.526;8.538;2022-12-07T00:38:59;54.43;;;26.23;;
73023;SDS011;61199;47.526;8.538;2022-12-07T00:41:27;60.30;;;26.57;;
73023;SDS011;61199;47.526;8.538;2022-12-07T00:43:54;57.27;;;26.00;;
73023;SDS011;61199;47.526;8.538;2022-12-07T00:46:21;58.17;;;28.20;;
73023;SDS011;61199;47.526;8.538;2022-12-07T00:48:49;57.30;;;26.40;;
73023;SDS011;61199;47.526;8.538;2022-12-07T00:51:17;51.67;;;24.60;;
73023;SDS011;61199;47.526;8.538;2022-12-07T00:53:45;59.30;;;27.10;;
73023;SDS011;61199;47.526;8.538;2022-12-07T00:56:13;54.10;;;25.10;;
73023;SDS011;61199;47.526;8.538;2022-12-07T00:58:41;51.30;;;24.30;;
73023;SDS011;61199;47.526;8.538;2022-12-07T01:01:08;57.57;;;25.93;;
73023;SDS011;61199;47.526;8.538;2022-12-07T01:03:35;55.60;;;23.97;;
73023;SDS011;61199;47.526;8.538;2022-12-07T01:06:03;56.43;;;24.53;;
73023;SDS011;61199;47.526;8.538;2022-12-07T01:08:29;50.03;;;22.73;;
73023;SDS011;61199;47.526;8.538;2022-12-07T01:11:06;52.17;;;24.27;;
73023;SDS011;61199;47.526;8.538;2022-12-07T01:13:35;50.00;;;24.20;;
73023;SDS011;61199;47.526;8.538;2022-12-07T01:16:03;55.50;;;24.77;;
73023;SDS011;61199;47.526;8.538;2022-12-07T01:18:32;56.30;;;25.10;;
73023;SDS011;61199;47.526;8.538;2022-12-07T01:23:35;61.93;;;26.40;;
73023;SDS011;61199;47.526;8.538;2022-12-07T01:26:03;55.10;;;24.47;;
73023;SDS011;61199;47.526;8.538;2022-12-07T01:28:31;54.30;;;24.17;;
73023;SDS011;61199;47.526;8.538;2022-12-07T01:31:01;54.77;;;23.97;;
73023;SDS011;61199;47.526;8.538;2022-12-07T01:33:31;54.73;;;24.90;;
73023;SDS011;61199;47.526;8.538;2022-12-07T01:36:03;56.67;;;24.87;;
73023;SDS011;61199;47.526;8.538;2022-12-07T01:38:43;52.33;;;24.70;;
73023;SDS011;61199;47.526;8.538;2022-12-07T01:41:11;52.23;;;25.43;;
73023;SDS011;61199;47.526;8.538;2022-12-07T01:44:06;57.63;;;24.70;;
73023;SDS011;61199;47.526;8.538;2022-12-07T01:46:34;55.13;;;25.20;;
73023;SDS011;61199;47.526;8.538;2022-12-07T01:49:01;55.63;;;24.83;;
73023;SDS011;61199;47.526;8.538;2022-12-07T01:51:30;53.77;;;25.40;;
73023;SDS011;61199;47.526;8.538;2022-12-07T01:53:56;55.97;;;26.30;;
73023;SDS011;61199;47.526;8.538;2022-12-07T01:56:24;64.07;;;27.87;;
73023;SDS011;61199;47.526;8.538;2022-12-07T01:58:52;59.57;;;24.37;;
73023;SDS011;61199;47.526;8.538;2022-12-07T02:01:20;64.30;;;27.73;;
73023;SDS011;61199;47.526;8.538;2022-12-07T02:03:47;56.93;;;26.37;;
73023;SDS011;61199;47.526;8.538;2022-12-07T02:06:16;57.67;;;25.97;;
73023;SDS011;61199;47.526;8.538;2022-12-07T02:08:46;55.70;;;25.23;;
73023;SDS011;61199;47.526;8.538;2022-12-07T02:11:13;59.63;;;27.10;;
73023;SDS011;61199;47.526;8.538;2022-12-07T02:13:40;56.20;;;25.17;;
73023;SDS011;61199;47.526;8.538;2022-12-07T02:27:38;64.30;;;26.87;;
73023;SDS011;61199;47.526;8.538;2022-12-07T02:32:42;63.73;;;28.20;;
73023;SDS011;61199;47.526;8.538;2022-12-07T02:35:20;70.83;;;28.43;;
73023;SDS011;61199;47.526;8.538;2022-12-07T02:37:55;58.90;;;26.40;;
73023;SDS011;61199;47.526;8.538;2022-12-07T02:40:38;63.80;;;27.63;;
73023;SDS011;61199;47.526;8.538;2022-12-07T02:43:10;57.43;;;26.53;;
73023;SDS011;61199;47.526;8.538;2022-12-07T02:45:42;62.83;;;27.17;;
73023;SDS011;61199;47.526;8.538;2022-12-07T02:48:12;57.10;;;26.33;;
73023;SDS011;61199;47.526;8.538;2022-12-07T02:50:48;62.77;;;27.57;;
73023;SDS011;61199;47.526;8.538;2022-12-07T02:53:36;59.80;;;28.20;;
73023;SDS011;61199;47.526;8.538;2022-12-07T03:01:41;74.50;;;29.73;;
73023;SDS011;61199;47.526;8.538;2022-12-07T03:06:45;59.23;;;28.07;;
73023;SDS011;61199;47.526;8.538;2022-12-07T03:09:26;58.50;;;26.33;;
73023;SDS011;61199;47.526;8.538;2022-12-07T03:12:06;60.97;;;27.47;;
73023;SDS011;61199;47.526;8.538;2022-12-07T03:14:41;70.17;;;27.83;;
73023;SDS011;61199;47.526;8.538;2022-12-07T03:17:24;68.27;;;26.10;;
73023;SDS011;61199;47.526;8.538;2022-12-07T03:19:54;59.77;;;27.67;;
73023;SDS011;61199;47.526;8.538;2022-12-07T03:22:24;63.60;;;29.33;;
73023;SDS011;61199;47.526;8.538;2022-12-07T03:24:57;66.90;;;28.43;;
73023;SDS011;61199;47.526;8.538;2022-12-07T03:27:26;60.57;;;26.20;;
73023;SDS011;61199;47.526;8.538;2022-12-07T03:29:59;65.70;;;28.57;;
73023;SDS011;61199;47.526;8.538;2022-12-07T03:32:34;62.70;;;28.10;;
73023;SDS011;61199;47.526;8.538;2022-12-07T03:35:14;59.50;;;27.63;;
73023;SDS011;61199;47.526;8.538;2022-12-07T03:37:48;59.60;;;26.50;;
73023;SDS011;61199;47.526;8.538;2022-12-07T03:40:30;65.07;;;28.50;;
73023;SDS011;61199;47.526;8.538;2022-12-07T03:43:01;61.47;;;28.27;;
73023;SDS011;61199;47.526;8.538;2022-12-07T03:45:39;64.40;;;27.33;;
73023;SDS011;61199;47.526;8.538;2022-12-07T03:48:16;62.27;;;27.17;;
73023;SDS011;61199;47.526;8.538;2022-12-07T03:53:19;65.50;;;29.03;;
73023;SDS011;61199;47.526;8.538;2022-12-07T03:55:56;68.93;;;30.00;;
73023;SDS011;61199;47.526;8.538;2022-12-07T03:58:23;65.30;;;29.03;;
73023;SDS011;61199;47.526;8.538;2022-12-07T04:00:51;64.53;;;27.53;;
73023;SDS011;61199;47.526;8.538;2022-12-07T04:03:18;61.87;;;28.80;;
73023;SDS011;61199;47.526;8.538;2022-12-07T04:05:44;67.40;;;28.23;;
73023;SDS011;61199;47.526;8.538;2022-12-07T04:08:11;62.73;;;27.50;;
73023;SDS011;61199;47.526;8.538;2022-12-07T04:10:38;63.50;;;27.67;;
73023;SDS011;61199;47.526;8.538;2022-12-07T04:13:04;60.80;;;26.77;;
73023;SDS011;61199;47.526;8.538;2022-12-07T04:15:31;66.90;;;28.30;;
73023;SDS011;61199;47.526;8.538;2022-12-07T04:17:57;66.30;;;29.50;;
73023;SDS011;61199;47.526;8.538;2022-12-07T04:20:23;62.20;;;27.67;;
73023;SDS011;61199;47.526;8.538;2022-12-07T04:22:50;66.10;;;28.30;;
73023;SDS011;61199;47.526;8.538;2022-12-07T04:25:16;68.27;;;28.63;;
73023;SDS011;61199;47.526;8.538;2022-12-07T04:27:42;58.03;;;27.07;;
73023;SDS011;61199;47.526;8.538;2022-12-07T04:30:09;67.33;;;29.27;;
73023;SDS011;61199;47.526;8.538;2022-12-07T04:32:36;60.70;;;29.17;;
73023;SDS011;61199;47.526;8.538;2022-12-07T04:35:02;61.03;;;27.67;;
73023;SDS011;61199;47.526;8.538;2022-12-07T04:37:29;63.63;;;29.90;;
73023;SDS011;61199;47.526;8.538;2022-12-07T04:39:56;62.33;;;27.73;;
73023;SDS011;61199;47.526;8.538;2022-12-07T04:42:22;67.73;;;29.00;;
73023;SDS011;61199;47.526;8.538;2022-12-07T04:44:48;60.17;;;28.07;;
73023;SDS011;61199;47.526;8.538;2022-12-07T04:47:15;59.17;;;27.47;;
73023;SDS011;61199;47.526;8.538;2022-12-07T04:49:41;54.33;;;26.53;;
73023;SDS011;61199;47.526;8.538;2022-12-07T04:52:07;60.87;;;28.03;;
73023;SDS011;61199;47.526;8.538;2022-12-07T04:54:34;68.83;;;30.47;;
73023;SDS011;61199;47.526;8.538;2022-12-07T04:57:01;61.70;;;27.80;;
73023;SDS011;61199;47.526;8.538;2022-12-07T04:59:27;61.30;;;27.57;;
73023;SDS011;61199;47.526;8.538;2022-12-07T05:01:54;66.37;;;28.00;;
73023;SDS011;61199;47.526;8.538;2022-12-07T05:04:20;62.03;;;28.43;;
73023;SDS011;61199;47.526;8.538;2022-12-07T05:06:46;60.77;;;28.03;;
73023;SDS011;61199;47.526;8.538;2022-12-07T05:09:13;63.23;;;29.50;;
73023;SDS011;61199;47.526;8.538;2022-12-07T05:11:39;62.53;;;28.27;;
73023;SDS011;61199;47.526;8.538;2022-12-07T05:14:08;60.03;;;26.60;;
73023;SDS011;61199;47.526;8.538;2022-12-07T05:16:34;64.90;;;29.30;;
73023;SDS011;61199;47.526;8.538;2022-12-07T05:19:05;58.37;;;28.20;;
73023;SDS011;61199;47.526;8.538;2022-12-07T05:21:34;59.57;;;27.50;;
73023;SDS011;61199;47.526;8.538;2022-12-07T05:24:03;58.60;;;27.60;;
73023;SDS011;61199;47.526;8.538;2022-12-07T05:26:30;57.10;;;28.13;;
73023;SDS011;61199;47.526;8.538;2022-12-07T05:28:57;61.43;;;28.57;;
73023;SDS011;61199;47.526;8.538;2022-12-07T05:31:24;60.27;;;28.57;;
73023;SDS011;61199;47.526;8.538;2022-12-07T05:33:51;69.73;;;29.23;;
73023;SDS011;61199;47.526;8.538;2022-12-07T05:36:18;58.40;;;28.40;;
73023;SDS011;61199;47.526;8.538;2022-12-07T05:38:44;73.17;;;30.90;;
73023;SDS011;61199;47.526;8.538;2022-12-07T05:41:12;63.50;;;29.30;;
73023;SDS011;61199;47.526;8.538;2022-12-07T05:43:59;70.23;;;29.27;;
73023;SDS011;61199;47.526;8.538;2022-12-07T05:46:26;68.00;;;30.00;;
73023;SDS011;61199;47.526;8.538;2022-12-07T05:48:52;62.97;;;28.60;;
73023;SDS011;61199;47.526;8.538;2022-12-07T05:51:18;61.83;;;28.33;;
73023;SDS011;61199;47.526;8.538;2022-12-07T05:53:45;64.60;;;30.37;;
73023;SDS011;61199;47.526;8.538;2022-12-07T05:56:11;60.00;;;28.03;;
73023;SDS011;61199;47.526;8.538;2022-12-07T05:58:38;62.10;;;29.60;;
73023;SDS011;61199;47.526;8.538;2022-12-07T06:01:23;62.60;;;27.97;;
73023;SDS011;61199;47.526;8.538;2022-12-07T06:03:49;74.80;;;30.50;;
73023;SDS011;61199;47.526;8.538;2022-12-07T06:06:16;69.33;;;31.33;;
73023;SDS011;61199;47.526;8.538;2022-12-07T06:08:42;68.23;;;30.93;;
73023;SDS011;61199;47.526;8.538;2022-12-07T06:11:08;72.70;;;30.40;;
73023;SDS011;61199;47.526;8.538;2022-12-07T06:13:53;68.10;;;30.67;;
73023;SDS011;61199;47.526;8.538;2022-12-07T06:16:20;71.83;;;30.80;;
73023;SDS011;61199;47.526;8.538;2022-12-07T06:18:46;72.57;;;32.27;;
73023;SDS011;61199;47.526;8.538;2022-12-07T06:21:13;72.37;;;31.00;;
73023;SDS011;61199;47.526;8.538;2022-12-07T06:23:40;71.50;;;32.17;;
73023;SDS011;61199;47.526;8.538;2022-12-07T06:26:06;80.07;;;34.47;;
73023;SDS011;61199;47.526;8.538;2022-12-07T06:28:33;74.83;;;33.10;;
73023;SDS011;61199;47.526;8.538;2022-12-07T06:30:59;75.63;;;32.80;;
73023;SDS011;61199;47.526;8.538;2022-12-07T06:33:27;71.87;;;30.00;;
73023;SDS011;61199;47.526;8.538;2022-12-07T06:35:54;75.13;;;33.13;;
73023;SDS011;61199;47.526;8.538;2022-12-07T06:38:21;73.17;;;31.60;;
73023;SDS011;61199;47.526;8.538;2022-12-07T06:40:47;62.53;;;30.43;;
73023;SDS011;61199;47.526;8.538;2022-12-07T06:43:14;78.27;;;33.27;;
73023;SDS011;61199;47.526;8.538;2022-12-07T06:45:41;75.13;;;31.57;;
73023;SDS011;61199;47.526;8.538;2022-12-07T06:48:08;78.73;;;31.70;;
73023;SDS011;61199;47.526;8.538;2022-12-07T06:50:34;69.27;;;30.37;;
73023;SDS011;61199;47.526;8.538;2022-12-07T06:53:01;71.50;;;30.50;;
73023;SDS011;61199;47.526;8.538;2022-12-07T06:55:27;66.20;;;30.80;;
73023;SDS011;61199;47.526;8.538;2022-12-07T06:57:53;79.37;;;32.97;;
73023;SDS011;61199;47.526;8.538;2022-12-07T07:00:20;72.07;;;30.77;;
73023;SDS011;61199;47.526;8.538;2022-12-07T07:02:47;80.90;;;32.77;;
73023;SDS011;61199;47.526;8.538;2022-12-07T07:05:14;82.20;;;33.17;;
73023;SDS011;61199;47.526;8.538;2022-12-07T07:07:41;76.40;;;32.70;;
73023;SDS011;61199;47.526;8.538;2022-12-07T07:10:28;78.23;;;33.50;;
73023;SDS011;61199;47.526;8.538;2022-12-07T07:12:54;72.97;;;31.63;;
73023;SDS011;61199;47.526;8.538;2022-12-07T07:15:23;73.80;;;31.63;;
73023;SDS011;61199;47.526;8.538;2022-12-07T07:17:49;77.17;;;32.87;;
73023;SDS011;61199;47.526;8.538;2022-12-07T07:20:16;85.87;;;33.70;;
73023;SDS011;61199;47.526;8.538;2022-12-07T07:22:42;82.37;;;34.30;;
73023;SDS011;61199;47.526;8.538;2022-12-07T07:25:08;77.33;;;32.53;;
73023;SDS011;61199;47.526;8.538;2022-12-07T07:27:35;81.73;;;32.40;;
73023;SDS011;61199;47.526;8.538;2022-12-07T07:30:01;72.77;;;31.43;;
73023;SDS011;61199;47.526;8.538;2022-12-07T07:32:29;69.47;;;31.07;;
73023;SDS011;61199;47.526;8.538;2022-12-07T07:34:55;78.23;;;32.73;;
73023;SDS011;61199;47.526;8.538;2022-12-07T07:37:21;71.47;;;31.73;;
73023;SDS011;61199;47.526;8.538;2022-12-07T07:39:49;82.57;;;32.20;;
73023;SDS011;61199;47.526;8.538;2022-12-07T07:42:15;71.73;;;32.00;;
73023;SDS011;61199;47.526;8.538;2022-12-07T07:44:42;70.30;;;32.00;;
73023;SDS011;61199;47.526;8.538;2022-12-07T07:47:08;72.13;;;31.63;;
73023;SDS011;61199;47.526;8.538;2022-12-07T07:49:34;69.50;;;30.70;;
73023;SDS011;61199;47.526;8.538;2022-12-07T07:52:01;70.77;;;33.10;;
73023;SDS011;61199;47.526;8.538;2022-12-07T07:54:30;67.23;;;30.80;;
73023;SDS011;61199;47.526;8.538;2022-12-07T07:56:56;69.17;;;29.80;;
73023;SDS011;61199;47.526;8.538;2022-12-07T07:59:22;80.20;;;31.70;;
73023;SDS011;61199;47.526;8.538;2022-12-07T08:01:49;69.97;;;31.80;;
73023;SDS011;61199;47.526;8.538;2022-12-07T08:04:15;72.07;;;32.30;;
73023;SDS011;61199;47.526;8.538;2022-12-07T08:06:44;75.53;;;31.47;;
73023;SDS011;61199;47.526;8.538;2022-12-07T08:09:10;80.10;;;33.83;;
73023;SDS011;61199;47.526;8.538;2022-12-07T08:11:38;74.47;;;31.93;;
73023;SDS011;61199;47.526;8.538;2022-12-07T08:14:06;90.73;;;33.10;;
73023;SDS011;61199;47.526;8.538;2022-12-07T08:16:33;82.43;;;34.63;;
73023;SDS011;61199;47.526;8.538;2022-12-07T08:18:59;80.30;;;34.67;;
73023;SDS011;61199;47.526;8.538;2022-12-07T08:21:25;72.53;;;31.30;;
73023;SDS011;61199;47.526;8.538;2022-12-07T08:23:52;75.93;;;31.20;;
73023;SDS011;61199;47.526;8.538;2022-12-07T08:26:18;67.30;;;31.93;;
73023;SDS011;61199;47.526;8.538;2022-12-07T08:28:45;75.33;;;34.43;;
73023;SDS011;61199;47.526;8.538;2022-12-07T08:31:13;82.73;;;33.77;;
73023;SDS011;61199;47.526;8.538;2022-12-07T08:33:41;79.13;;;32.70;;
73023;SDS011;61199;47.526;8.538;2022-12-07T08:36:09;74.83;;;31.77;;
73023;SDS011;61199;47.526;8.538;2022-12-07T08:38:38;78.63;;;31.07;;
73023;SDS011;61199;47.526;8.538;2022-12-07T08:41:05;76.03;;;33.77;;
73023;SDS011;61199;47.526;8.538;2022-12-07T08:43:32;75.83;;;32.40;;
73023;SDS011;61199;47.526;8.538;2022-12-07T08:48:32;61.70;;;28.73;;
73023;SDS011;61199;47.526;8.538;2022-12-07T08:51:01;75.70;;;30.33;;
73023;SDS011;61199;47.526;8.538;2022-12-07T08:53:28;73.50;;;29.83;;
73023;SDS011;61199;47.526;8.538;2022-12-07T08:55:56;71.80;;;31.63;;
73023;SDS011;61199;47.526;8.538;2022-12-07T08:58:23;76.30;;;31.47;;
73023;SDS011;61199;47.526;8.538;2022-12-07T09:00:50;75.90;;;31.57;;
73023;SDS011;61199;47.526;8.538;2022-12-07T09:03:17;72.93;;;31.37;;
73023;SDS011;61199;47.526;8.538;2022-12-07T09:05:43;81.73;;;33.17;;
73023;SDS011;61199;47.526;8.538;2022-12-07T09:08:09;75.03;;;33.13;;
73023;SDS011;61199;47.526;8.538;2022-12-07T09:10:36;90.00;;;34.27;;
73023;SDS011;61199;47.526;8.538;2022-12-07T09:13:03;80.93;;;32.40;;
73023;SDS011;61199;47.526;8.538;2022-12-07T09:15:29;74.70;;;33.80;;
73023;SDS011;61199;47.526;8.538;2022-12-07T09:17:56;70.40;;;31.40;;
73023;SDS011;61199;47.526;8.538;2022-12-07T09:20:22;73.97;;;30.60;;
73023;SDS011;61199;47.526;8.538;2022-12-07T09:22:53;77.13;;;32.13;;
73023;SDS011;61199;47.526;8.538;2022-12-07T09:25:19;77.47;;;31.10;;
73023;SDS011;61199;47.526;8.538;2022-12-07T09:27:46;75.73;;;31.30;;
73023;SDS011;61199;47.526;8.538;2022-12-07T09:30:12;78.07;;;31.70;;
73023;SDS011;61199;47.526;8.538;2022-12-07T09:32:41;91.20;;;34.20;;
73023;SDS011;61199;47.526;8.538;2022-12-07T09:35:07;80.20;;;32.37;;
73023;SDS011;61199;47.526;8.538;2022-12-07T09:37:34;77.00;;;33.10;;
73023;SDS011;61199;47.526;8.538;2022-12-07T09:40:02;67.53;;;31.30;;
73023;SDS011;61199;47.526;8.538;2022-12-07T09:45:04;76.93;;;30.07;;
73023;SDS011;61199;47.526;8.538;2022-12-07T09:47:33;66.40;;;28.00;;
73023;SDS011;61199;47.526;8.538;2022-12-07T09:50:10;69.87;;;30.40;;
73023;SDS011;61199;47.526;8.538;2022-12-07T09:52:40;84.30;;;29.33;;
73023;SDS011;61199;47.526;8.538;2022-12-07T09:55:09;67.37;;;27.80;;
73023;SDS011;61199;47.526;8.538;2022-12-07T09:57:38;60.90;;;27.03;;
73023;SDS011;61199;47.526;8.538;2022-12-07T10:00:12;67.97;;;29.17;;
73023;SDS011;61199;47.526;8.538;2022-12-07T10:02:42;59.03;;;28.03;;
73023;SDS011;61199;47.526;8.538;2022-12-07T10:05:34;60.37;;;27.20;;
73023;SDS011;61199;47.526;8.538;2022-12-07T10:08:03;58.90;;;26.90;;
73023;SDS011;61199;47.526;8.538;2022-12-07T10:10:31;54.23;;;25.10;;
73023;SDS011;61199;47.526;8.538;2022-12-07T10:15:41;58.27;;;26.40;;
73023;SDS011;61199;47.526;8.538;2022-12-07T10:18:26;57.27;;;25.40;;
73023;SDS011;61199;47.526;8.538;2022-12-07T10:21:23;62.40;;;28.53;;
73023;SDS011;61199;47.526;8.538;2022-12-07T10:24:04;50.73;;;23.80;;
73023;SDS011;61199;47.526;8.538;2022-12-07T10:29:17;52.77;;;24.03;;
73023;SDS011;61199;47.526;8.538;2022-12-07T10:31:49;54.33;;;24.50;;
73023;SDS011;61199;47.526;8.538;2022-12-07T10:34:22;56.03;;;26.27;;
73023;SDS011;61199;47.526;8.538;2022-12-07T10:37:06;55.53;;;25.47;;
73023;SDS011;61199;47.526;8.538;2022-12-07T10:39:52;58.40;;;25.30;;
73023;SDS011;61199;47.526;8.538;2022-12-07T10:42:21;53.73;;;25.40;;
73023;SDS011;61199;47.526;8.538;2022-12-07T10:44:50;55.00;;;24.00;;
73023;SDS011;61199;47.526;8.538;2022-12-07T10:47:39;55.43;;;24.70;;
73023;SDS011;61199;47.526;8.538;2022-12-07T10:50:17;52.80;;;23.80;;
73023;SDS011;61199;47.526;8.538;2022-12-07T11:07:01;47.03;;;22.10;;
73023;SDS011;61199;47.526;8.538;2022-12-07T11:15:36;40.20;;;19.50;;
73023;SDS011;61199;47.526;8.538;2022-12-07T11:21:00;36.73;;;17.87;;
73023;SDS011;61199;47.526;8.538;2022-12-07T11:26:30;41.13;;;19.60;;
73023;SDS011;61199;47.526;8.538;2022-12-07T11:29:29;40.77;;;18.83;;
73023;SDS011;61199;47.526;8.538;2022-12-07T11:35:18;35.27;;;15.80;;
73023;SDS011;61199;47.526;8.538;2022-12-07T11:37:57;31.30;;;15.27;;
73023;SDS011;61199;47.526;8.538;2022-12-07T11:40:31;32.67;;;15.90;;
73023;SDS011;61199;47.526;8.538;2022-12-07T11:45:57;32.83;;;15.97;;
73023;SDS011;61199;47.526;8.538;2022-12-07T11:48:31;38.07;;;15.77;;
73023;SDS011;61199;47.526;8.538;2022-12-07T11:51:01;29.27;;;15.80;;
73023;SDS011;61199;47.526;8.538;2022-12-07T11:53:35;28.00;;;14.03;;
73023;SDS011;61199;47.526;8.538;2022-12-07T12:06:19;26.37;;;12.67;;
73023;SDS011;61199;47.526;8.538;2022-12-07T12:17:55;26.20;;;12.67;;
73023;SDS011;61199;47.526;8.538;2022-12-07T12:23:41;27.37;;;12.07;;
73023;SDS011;61199;47.526;8.538;2022-12-07T12:26:16;25.60;;;12.73;;
73023;SDS011;61199;47.526;8.538;2022-12-07T12:31:17;28.50;;;13.07;;
73023;SDS011;61199;47.526;8.538;2022-12-07T12:33:55;22.80;;;12.10;;
73023;SDS011;61199;47.526;8.538;2022-12-07T12:39:13;22.87;;;11.30;;
73023;SDS011;61199;47.526;8.538;2022-12-07T12:46:48;25.60;;;13.20;;
73023;SDS011;61199;47.526;8.538;2022-12-07T12:52:00;22.73;;;12.37;;
73023;SDS011;61199;47.526;8.538;2022-12-07T12:54:41;18.87;;;10.40;;
73023;SDS011;61199;47.526;8.538;2022-12-07T12:57:32;24.13;;;12.10;;
73023;SDS011;61199;47.526;8.538;2022-12-07T12:59:59;21.63;;;11.20;;
73023;SDS011;61199;47.526;8.538;2022-12-07T13:02:30;23.00;;;11.23;;
73023;SDS011;61199;47.526;8.538;2022-12-07T13:05:01;23.07;;;11.60;;
73023;SDS011;61199;47.526;8.538;2022-12-07T13:13:08;22.27;;;11.77;;
73023;SDS011;61199;47.526;8.538;2022-12-07T13:15:51;21.87;;;11.70;;
73023;SDS011;61199;47.526;8.538;2022-12-07T13:18:40;25.00;;;11.67;;
73023;SDS011;61199;47.526;8.538;2022-12-07T13:28:50;40.87;;;13.87;;
73023;SDS011;61199;47.526;8.538;2022-12-07T13:31:32;24.20;;;11.70;;
73023;SDS011;61199;47.526;8.538;2022-12-07T13:34:01;28.47;;;12.50;;
73023;SDS011;61199;47.526;8.538;2022-12-07T13:36:30;28.50;;;12.53;;
73023;SDS011;61199;47.526;8.538;2022-12-07T13:42:07;18.33;;;9.77;;
73023;SDS011;61199;47.526;8.538;2022-12-07T13:44:44;24.67;;;11.40;;
73023;SDS011;61199;47.526;8.538;2022-12-07T13:49:50;22.53;;;11.40;;
73023;SDS011;61199;47.526;8.538;2022-12-07T13:52:26;25.23;;;11.50;;
73023;SDS011;61199;47.526;8.538;2022-12-07T13:54:58;20.43;;;11.27;;
73023;SDS011;61199;47.526;8.538;2022-12-07T13:57:26;23.50;;;11.20;;
73023;SDS011;61199;47.526;8.538;2022-12-07T13:59:55;24.03;;;12.73;;
73023;SDS011;61199;47.526;8.538;2022-12-07T14:02:27;24.77;;;13.30;;
73023;SDS011;61199;47.526;8.538;2022-12-07T14:05:13;19.50;;;11.30;;
73023;SDS011;61199;47.526;8.538;2022-12-07T14:10:40;27.87;;;11.47;;
73023;SDS011;61199;47.526;8.538;2022-12-07T14:15:57;21.37;;;11.37;;
73023;SDS011;61199;47.526;8.538;2022-12-07T14:18:28;23.93;;;12.40;;
73023;SDS011;61199;47.526;8.538;2022-12-07T14:21:03;21.47;;;11.00;;
73023;SDS011;61199;47.526;8.538;2022-12-07T14:23:30;27.33;;;10.67;;
73023;SDS011;61199;47.526;8.538;2022-12-07T14:26:11;24.70;;;12.03;;
73023;SDS011;61199;47.526;8.538;2022-12-07T14:28:40;26.37;;;11.23;;
73023;SDS011;61199;47.526;8.538;2022-12-07T14:31:12;22.90;;;10.90;;
73023;SDS011;61199;47.526;8.538;2022-12-07T14:33:49;19.90;;;10.13;;
73023;SDS011;61199;47.526;8.538;2022-12-07T14:36:15;20.27;;;10.53;;
73023;SDS011;61199;47.526;8.538;2022-12-07T14:38:42;25.63;;;10.07;;
73023;SDS011;61199;47.526;8.538;2022-12-07T14:41:15;19.30;;;9.70;;
73023;SDS011;61199;47.526;8.538;2022-12-07T14:44:10;21.10;;;11.40;;
73023;SDS011;61199;47.526;8.538;2022-12-07T14:46:57;29.83;;;12.43;;
73023;SDS011;61199;47.526;8.538;2022-12-07T14:49:44;28.33;;;11.30;;
73023;SDS011;61199;47.526;8.538;2022-12-07T14:52:15;26.37;;;11.60;;
73023;SDS011;61199;47.526;8.538;2022-12-07T14:55:08;26.53;;;12.43;;
73023;SDS011;61199;47.526;8.538;2022-12-07T14:57:39;24.10;;;11.50;;
73023;SDS011;61199;47.526;8.538;2022-12-07T15:00:06;22.70;;;12.27;;
73023;SDS011;61199;47.526;8.538;2022-12-07T15:02:33;23.30;;;10.93;;
73023;SDS011;61199;47.526;8.538;2022-12-07T15:04:59;23.97;;;11.50;;
73023;SDS011;61199;47.526;8.538;2022-12-07T15:07:26;22.67;;;11.40;;
73023;SDS011;61199;47.526;8.538;2022-12-07T15:09:52;23.97;;;10.43;;
73023;SDS011;61199;47.526;8.538;2022-12-07T15:12:19;20.20;;;10.83;;
73023;SDS011;61199;47.526;8.538;2022-12-07T15:14:45;25.57;;;11.87;;
73023;SDS011;61199;47.526;8.538;2022-12-07T15:17:12;27.33;;;13.60;;
73023;SDS011;61199;47.526;8.538;2022-12-07T15:19:53;19.00;;;10.57;;
73023;SDS011;61199;47.526;8.538;2022-12-07T15:22:19;27.67;;;11.73;;
73023;SDS011;61199;47.526;8.538;2022-12-07T15:24:46;28.80;;;11.90;;
73023;SDS011;61199;47.526;8.538;2022-12-07T15:27:13;21.40;;;10.53;;
73023;SDS011;61199;47.526;8.538;2022-12-07T15:29:39;25.27;;;11.47;;
73023;SDS011;61199;47.526;8.538;2022-12-07T15:32:06;22.47;;;11.07;;
73023;SDS011;61199;47.526;8.538;2022-12-07T15:34:32;28.60;;;12.10;;
73023;SDS011;61199;47.526;8.538;2022-12-07T15:37:05;24.83;;;12.10;;
73023;SDS011;61199;47.526;8.538;2022-12-07T15:39:32;22.90;;;11.57;;
73023;SDS011;61199;47.526;8.538;2022-12-07T15:41:59;36.20;;;10.70;;
73023;SDS011;61199;47.526;8.538;2022-12-07T15:44:25;30.07;;;11.17;;
73023;SDS011;61199;47.526;8.538;2022-12-07T15:47:11;24.70;;;12.37;;
73023;SDS011;61199;47.526;8.538;2022-12-07T15:49:37;22.53;;;11.83;;
73023;SDS011;61199;47.526;8.538;2022-12-07T15:52:08;23.60;;;11.63;;
73023;SDS011;61199;47.526;8.538;2022-12-07T15:54:35;24.93;;;12.03;;
73023;SDS011;61199;47.526;8.538;2022-12-07T15:57:01;24.13;;;12.30;;
73023;SDS011;61199;47.526;8.538;2022-12-07T15:59:28;25.27;;;11.60;;
73023;SDS011;61199;47.526;8.538;2022-12-07T16:01:55;23.40;;;11.63;;
73023;SDS011;61199;47.526;8.538;2022-12-07T16:04:22;25.77;;;12.00;;
73023;SDS011;61199;47.526;8.538;2022-12-07T16:06:48;24.43;;;12.80;;
73023;SDS011;61199;47.526;8.538;2022-12-07T16:09:17;26.93;;;12.50;;
73023;SDS011;61199;47.526;8.538;2022-12-07T16:11:44;23.17;;;10.97;;
73023;SDS011;61199;47.526;8.538;2022-12-07T16:14:10;23.40;;;12.10;;
73023;SDS011;61199;47.526;8.538;2022-12-07T16:16:37;21.33;;;11.83;;
73023;SDS011;61199;47.526;8.538;2022-12-07T16:19:03;24.93;;;11.53;;
73023;SDS011;61199;47.526;8.538;2022-12-07T16:21:29;20.90;;;11.00;;
73023;SDS011;61199;47.526;8.538;2022-12-07T16:23:57;31.33;;;12.47;;
73023;SDS011;61199;47.526;8.538;2022-12-07T16:26:25;25.23;;;11.77;;
73023;SDS011;61199;47.526;8.538;2022-12-07T16:28:51;21.77;;;10.60;;
73023;SDS011;61199;47.526;8.538;2022-12-07T16:31:20;28.17;;;13.57;;
73023;SDS011;61199;47.526;8.538;2022-12-07T16:33:48;21.83;;;11.33;;
73023;SDS011;61199;47.526;8.538;2022-12-07T16:36:16;24.03;;;12.47;;
73023;SDS011;61199;47.526;8.538;2022-12-07T16:39:03;22.97;;;12.50;;
73023;SDS011;61199;47.526;8.538;2022-12-07T16:41:34;26.00;;;12.00;;
73023;SDS011;61199;47.526;8.538;2022-12-07T16:44:01;27.23;;;11.80;;
73023;SDS011;61199;47.526;8.538;2022-12-07T16:46:31;21.37;;;11.30;;
73023;SDS011;61199;47.526;8.538;2022-12-07T16:48:59;26.50;;;11.80;;